createdAt,value
2019-01-14T00:01:01.215Z,99526.19
2019-01-14T00:06:26.258Z,99554.97
2019-01-14T00:08:55.582Z,99567.26
2019-01-14T00:11:44.200Z,99574.92
2019-01-14T00:14:13.529Z,99574.47
2019-01-14T00:16:43.138Z,99569.72
2019-01-14T00:19:14.600Z,99588.69
2019-01-14T00:21:44.064Z,99600.36
2019-01-14T00:24:15.304Z,99594.64
2019-01-14T00:26:44.945Z,99608.77
2019-01-14T00:29:14.364Z,99619.37
2019-01-14T00:31:44.003Z,99625.83
2019-01-14T00:34:13.697Z,99630.07
2019-01-14T00:36:43.174Z,99639.07
2019-01-14T00:39:12.500Z,99647.09
2019-01-14T00:41:43.460Z,99644.19
2019-01-14T00:44:13.125Z,99656.73
2019-01-14T00:46:42.451Z,99662.31
2019-01-14T00:52:00.699Z,99676.89
2019-01-14T00:54:30.366Z,99688.33
2019-01-14T00:56:59.710Z,99687.25
2019-01-14T00:59:29.315Z,99699.65
2019-01-14T01:01:58.652Z,99715.09
2019-01-14T01:04:40.753Z,99727.58
2019-01-14T01:07:10.443Z,99727.58
2019-01-14T01:09:40.060Z,99738.89
2019-01-14T01:14:48.726Z,99747.86
2019-01-14T01:17:18.365Z,99747.00
2019-01-14T01:19:47.689Z,99757.80
2019-01-14T01:22:18.653Z,99752.30
2019-01-14T01:24:48.226Z,99756.56
2019-01-14T01:27:17.866Z,99758.70
2019-01-14T01:30:00.271Z,99772.39
2019-01-14T01:32:29.605Z,99772.39
2019-01-14T01:35:19.320Z,99780.63
2019-01-14T01:37:48.942Z,99780.63
2019-01-14T01:40:20.459Z,99786.80
2019-01-14T01:42:51.457Z,99785.97
2019-01-14T01:45:20.779Z,99793.83
2019-01-14T01:47:50.395Z,99801.00
2019-01-14T01:50:19.856Z,99819.83
2019-01-14T01:52:49.419Z,99825.88
2019-01-14T01:55:18.742Z,99836.03
2019-01-14T01:57:48.371Z,99835.41
2019-01-14T02:00:39.055Z,99842.42
2019-01-14T02:03:08.822Z,99846.42
2019-01-14T02:08:26.693Z,99866.40
2019-01-14T02:10:57.639Z,99869.86
2019-01-14T02:13:26.984Z,99873.86
2019-01-14T02:15:56.493Z,99870.09
2019-01-14T02:18:25.861Z,99879.07
2019-01-14T02:20:55.465Z,99878.78
2019-01-14T02:23:24.811Z,99892.63
2019-01-14T02:25:54.375Z,99889.52
2019-01-14T02:28:24.014Z,99892.05
2019-01-14T02:30:53.586Z,99893.85
2019-01-14T02:33:22.935Z,99907.81
2019-01-14T02:35:52.576Z,99905.23
2019-01-14T02:38:21.921Z,99907.06
2019-01-14T02:40:51.457Z,99911.91
2019-01-14T02:43:21.096Z,99920.29
2019-01-14T02:45:50.604Z,99918.58
2019-01-14T02:48:20.012Z,99928.56
2019-01-14T02:50:49.580Z,99933.81
2019-01-14T02:53:38.298Z,99939.30
2019-01-14T02:56:08.929Z,99935.53
2019-01-14T02:58:38.779Z,99948.76
2019-01-14T03:01:09.553Z,99956.19
2019-01-14T03:03:38.888Z,99952.83
2019-01-14T03:09:18.001Z,99955.75
2019-01-14T03:11:47.509Z,99958.22
2019-01-14T03:14:16.869Z,99963.91
2019-01-14T03:16:46.523Z,99965.73
2019-01-14T03:19:16.464Z,99978.39
2019-01-14T03:22:00.191Z,99979.99
2019-01-14T03:24:29.666Z,99987.05
2019-01-14T03:26:59.029Z,99987.92
2019-01-14T03:29:28.731Z,100002.00
2019-01-14T03:31:58.067Z,100000.66
2019-01-14T03:34:27.639Z,100003.25
2019-01-14T03:36:56.977Z,100002.87
2019-01-14T03:39:26.610Z,99997.61
2019-01-14T03:41:55.931Z,99993.47
2019-01-14T03:44:25.569Z,99999.59
2019-01-14T03:46:55.207Z,100012.28
2019-01-14T03:49:24.838Z,100021.83
2019-01-14T03:51:54.414Z,100023.16
2019-01-14T03:55:04.263Z,100020.75
2019-01-14T03:57:33.809Z,100023.23
2019-01-14T04:03:05.874Z,100031.33
2019-01-14T04:05:35.569Z,100028.02
2019-01-14T04:08:04.912Z,100034.17
2019-01-14T04:10:34.511Z,100037.99
2019-01-14T04:13:22.980Z,100036.83
2019-01-14T04:15:52.598Z,100039.34
2019-01-14T04:18:22.235Z,100039.42
2019-01-14T04:20:51.834Z,100053.58
2019-01-14T04:23:21.196Z,100057.40
2019-01-14T04:25:50.817Z,100055.16
2019-01-14T04:28:20.238Z,100057.45
2019-01-14T04:30:50.027Z,100055.34
2019-01-14T04:33:19.356Z,100060.95
2019-01-14T04:35:48.887Z,100062.48
2019-01-14T04:38:18.310Z,100060.95
2019-01-14T04:40:47.769Z,100069.27
2019-01-14T04:43:18.217Z,100071.84
2019-01-14T04:45:47.719Z,100072.23
2019-01-14T04:48:17.304Z,100066.47
2019-01-14T04:50:46.749Z,100059.52
2019-01-14T04:53:16.318Z,100067.06
2019-01-14T04:55:46.812Z,100063.63
2019-01-14T04:58:16.148Z,100071.81
2019-01-14T05:00:45.767Z,100083.93
2019-01-14T05:03:15.104Z,100081.17
2019-01-14T05:05:44.440Z,100086.81
2019-01-14T05:08:14.065Z,100080.04
2019-01-14T05:10:43.960Z,100079.77
2019-01-14T05:13:13.655Z,100073.09
2019-01-14T05:15:43.270Z,100074.81
2019-01-14T05:18:13.036Z,100042.39
2019-01-14T05:20:42.386Z,100088.61
2019-01-14T05:23:12.019Z,100090.51
2019-01-14T05:25:41.364Z,100095.27
2019-01-14T05:28:10.984Z,100096.98
2019-01-14T05:30:40.330Z,100100.15
2019-01-14T05:33:28.808Z,100090.62
2019-01-14T05:35:58.151Z,100105.37
2019-01-14T05:38:27.776Z,100107.27
2019-01-14T05:40:57.376Z,100112.50
2019-01-14T05:43:27.000Z,100105.09
2019-01-14T05:46:36.379Z,100111.38
2019-01-14T05:49:05.873Z,100107.38
2019-01-14T05:51:35.220Z,100129.66
2019-01-14T05:57:00.353Z,100133.95
2019-01-14T05:59:29.976Z,100142.45
2019-01-14T06:01:59.554Z,100142.45
2019-01-14T06:04:28.918Z,100143.95
2019-01-14T06:10:02.137Z,100156.50
2019-01-14T06:12:31.767Z,100170.50
2019-01-14T06:15:01.143Z,100156.88
2019-01-14T06:17:30.478Z,100163.08
2019-01-14T06:20:00.434Z,100169.26
2019-01-14T06:22:30.970Z,100165.26
2019-01-14T06:25:00.296Z,100177.16
2019-01-14T06:27:30.169Z,100179.37
2019-01-14T06:30:18.630Z,100197.27
2019-01-14T06:32:48.160Z,100204.33
2019-01-14T06:35:17.516Z,100206.50
2019-01-14T06:37:52.318Z,100218.89
2019-01-14T06:40:34.338Z,100208.99
2019-01-14T06:43:04.246Z,100216.61
2019-01-14T06:45:33.884Z,100208.82
2019-01-14T06:48:03.219Z,100211.67
2019-01-14T06:53:15.516Z,100217.00
2019-01-14T06:55:45.063Z,100216.44
2019-01-14T06:58:14.625Z,100224.63
2019-01-14T07:00:44.016Z,100240.72
2019-01-14T07:03:13.347Z,100231.67
2019-01-14T07:05:42.692Z,100245.84
2019-01-14T07:08:12.607Z,100251.84
2019-01-14T07:10:42.144Z,100257.28
2019-01-14T07:13:11.552Z,100256.23
2019-01-14T07:15:41.134Z,100254.34
2019-01-14T07:18:10.765Z,100244.90
2019-01-14T07:20:40.179Z,100258.90
2019-01-14T07:23:09.612Z,100273.11
2019-01-14T07:25:39.162Z,100279.18
2019-01-14T07:28:09.444Z,100289.84
2019-01-14T07:30:39.348Z,100290.73
2019-01-14T07:33:28.822Z,100302.34
2019-01-14T07:35:58.309Z,100302.34
2019-01-14T07:38:28.527Z,100300.80
2019-01-14T07:40:58.387Z,100308.52
2019-01-14T07:43:28.276Z,100321.73
2019-01-14T07:45:57.877Z,100320.61
2019-01-14T07:48:27.219Z,100339.66
2019-01-14T07:54:11.418Z,100349.17
2019-01-14T07:59:33.649Z,100353.95
2019-01-14T08:02:03.526Z,100353.95
2019-01-14T08:04:33.177Z,100354.51
2019-01-14T08:07:02.534Z,100359.45
2019-01-14T08:09:32.206Z,100368.05
2019-01-14T08:12:41.836Z,100363.73
2019-01-14T08:18:46.299Z,100367.32
2019-01-14T08:21:15.950Z,100382.64
2019-01-14T08:23:57.880Z,100382.84
2019-01-14T08:26:27.498Z,100383.95
2019-01-14T08:28:56.861Z,100397.11
2019-01-14T08:31:26.308Z,100403.13
2019-01-14T08:33:55.642Z,100409.91
2019-01-14T08:36:25.584Z,100410.32
2019-01-14T08:38:54.920Z,100410.51
2019-01-14T08:47:01.470Z,100412.78
2019-01-14T08:49:30.790Z,100412.63
2019-01-14T08:52:00.339Z,100419.58
2019-01-14T08:54:29.666Z,100417.97
2019-01-14T08:56:59.012Z,100428.25
2019-01-14T08:59:28.472Z,100422.73
2019-01-14T09:01:57.823Z,100438.24
2019-01-14T09:04:39.876Z,100440.31
2019-01-14T09:07:09.725Z,100440.31
2019-01-14T09:09:39.358Z,100440.57
2019-01-14T09:12:10.898Z,100443.02
2019-01-14T09:14:40.505Z,100440.57
2019-01-14T09:17:10.219Z,100453.40
2019-01-14T09:19:39.547Z,100442.79
2019-01-14T09:22:17.626Z,100448.66
2019-01-14T09:24:46.946Z,100452.30
2019-01-14T09:27:16.642Z,100453.50
2019-01-14T09:29:46.246Z,100453.59
2019-01-14T09:32:15.967Z,100454.77
2019-01-14T09:37:54.902Z,100450.74
2019-01-14T09:40:24.593Z,100450.98
2019-01-14T09:42:53.936Z,100450.67
2019-01-14T09:45:43.089Z,100453.38
2019-01-14T09:48:13.696Z,100453.38
2019-01-14T09:50:43.263Z,100461.94
2019-01-14T09:53:12.837Z,100470.98
2019-01-14T09:55:42.454Z,100474.30
2019-01-14T09:58:13.714Z,100484.21
2019-01-14T10:00:43.039Z,100474.99
2019-01-14T10:03:12.670Z,100478.63
2019-01-14T10:05:41.995Z,100485.84
2019-01-14T10:08:11.630Z,100470.97
2019-01-14T10:10:41.227Z,100481.64
2019-01-14T10:13:10.567Z,100474.27
2019-01-14T10:15:39.890Z,100476.37
2019-01-14T10:18:09.961Z,100472.67
2019-01-14T10:20:39.581Z,100472.55
2019-01-14T10:23:10.028Z,100470.16
2019-01-14T10:25:39.651Z,100474.86
2019-01-14T10:28:10.000Z,100475.61
2019-01-14T10:30:39.645Z,100480.86
2019-01-14T10:33:29.244Z,100485.89
2019-01-14T10:35:58.684Z,100485.89
2019-01-14T10:38:28.030Z,100497.46
2019-01-14T10:40:57.616Z,100489.88
2019-01-14T10:43:26.961Z,100491.84
2019-01-14T10:45:56.578Z,100485.01
2019-01-14T10:48:26.213Z,100492.38
2019-01-14T10:50:55.796Z,100492.42
2019-01-14T10:53:25.463Z,100490.27
2019-01-14T10:55:54.788Z,100491.50
2019-01-14T10:58:24.137Z,100478.73
2019-01-14T11:01:05.640Z,100475.63
2019-01-14T11:03:34.984Z,100475.63
2019-01-14T11:09:09.610Z,100513.42
2019-01-14T11:11:59.865Z,100519.08
2019-01-14T11:14:29.204Z,100520.53
2019-01-14T11:16:58.673Z,100527.19
2019-01-14T11:19:28.037Z,100527.19
2019-01-14T11:22:17.050Z,100508.25
2019-01-14T11:27:30.016Z,100517.72
2019-01-14T11:29:59.354Z,100528.23
2019-01-14T11:32:28.867Z,100539.50
2019-01-14T11:34:58.209Z,100528.81
2019-01-14T11:37:29.484Z,100525.75
2019-01-14T11:39:58.873Z,100518.59
2019-01-14T11:42:28.199Z,100547.68
2019-01-14T11:44:57.854Z,100556.63
2019-01-14T11:47:27.190Z,100569.77
2019-01-14T11:49:57.073Z,100582.23
2019-01-14T11:52:26.431Z,100589.64
2019-01-14T11:54:55.974Z,100578.94
2019-01-14T11:57:25.302Z,100574.45
2019-01-14T11:59:54.790Z,100583.38
2019-01-14T12:02:24.116Z,100570.30
2019-01-14T12:04:53.752Z,100557.39
2019-01-14T12:07:23.610Z,100554.28
2019-01-14T12:10:05.472Z,100540.76
2019-01-14T12:12:47.268Z,100559.53
2019-01-14T12:15:56.944Z,100559.53
2019-01-14T12:18:26.273Z,100569.84
2019-01-14T12:21:07.979Z,100578.64
2019-01-14T12:23:38.041Z,100578.64
2019-01-14T12:26:07.380Z,100579.69
2019-01-14T12:28:49.072Z,100573.10
2019-01-14T12:31:18.415Z,100573.10
2019-01-14T12:33:48.029Z,100575.89
2019-01-14T12:36:17.373Z,100575.89
2019-01-14T17:38:44.288Z,101003.41
2019-01-14T17:41:14.482Z,101010.80
2019-01-14T17:43:43.864Z,101013.78
2019-01-14T17:46:13.216Z,101015.80
2019-01-14T17:48:42.645Z,101016.61
2019-01-14T17:51:12.285Z,101013.28
2019-01-14T17:53:43.565Z,101011.23
2019-01-14T17:56:12.969Z,101016.89
2019-01-14T17:58:55.359Z,101022.28
2019-01-14T18:01:32.996Z,101034.98
2019-01-14T18:04:02.622Z,101034.39
2019-01-14T18:06:32.048Z,101049.67
2019-01-14T18:11:42.812Z,101050.95
2019-01-14T18:14:24.869Z,101041.83
2019-01-14T18:16:54.237Z,101051.25
2019-01-14T18:19:23.868Z,101047.52
2019-01-14T18:21:53.244Z,101042.61
2019-01-14T18:24:23.199Z,101056.56
2019-01-14T18:26:52.746Z,101055.05
2019-01-14T18:29:22.366Z,101054.20
2019-01-14T18:32:12.907Z,101051.06
2019-01-14T18:35:01.746Z,101056.30
2019-01-14T18:37:31.095Z,101051.72
2019-01-14T18:40:00.722Z,101060.77
2019-01-14T18:42:30.078Z,101071.86
2019-01-14T18:44:59.696Z,101082.91
2019-01-14T18:47:29.036Z,101085.64
2019-01-14T18:49:58.621Z,101080.13
2019-01-14T18:52:27.954Z,101083.00
2019-01-14T18:54:57.578Z,101086.92
2019-01-14T18:57:27.035Z,101079.86
2019-01-14T19:00:08.717Z,101082.79
2019-01-14T19:02:38.059Z,101082.79
2019-01-14T19:08:41.842Z,101091.77
2019-01-14T19:11:11.278Z,101098.02
2019-01-14T19:13:40.881Z,101092.29
2019-01-14T19:16:12.165Z,101104.19
2019-01-14T19:18:41.797Z,101101.67
2019-01-14T19:21:11.237Z,101103.19
2019-01-14T19:23:41.584Z,101111.75
2019-01-14T19:26:11.348Z,101121.11
2019-01-14T19:28:40.998Z,101114.53
2019-01-14T19:31:11.608Z,101124.24
2019-01-14T19:33:41.209Z,101117.52
2019-01-14T19:36:11.227Z,101123.98
2019-01-14T19:38:40.857Z,101122.80
2019-01-14T19:41:11.202Z,101122.21
2019-01-14T19:43:40.939Z,101139.27
2019-01-14T19:46:11.617Z,101131.11
2019-01-14T19:48:40.988Z,101128.81
2019-01-14T19:51:11.266Z,101136.61
2019-01-14T19:53:41.076Z,101119.68
2019-01-14T19:56:11.437Z,101115.21
2019-01-14T19:58:41.813Z,101134.98
2019-01-14T20:01:11.419Z,101139.30
2019-01-14T20:03:41.241Z,101141.44
2019-01-14T20:06:11.318Z,101158.14
2019-01-14T20:09:00.341Z,101162.95
2019-01-14T20:11:29.967Z,101171.34
2019-01-14T20:13:59.307Z,101174.78
2019-01-14T20:16:28.636Z,101180.47
2019-01-14T20:18:58.209Z,101174.66
2019-01-14T20:21:27.835Z,101187.86
2019-01-14T20:23:57.170Z,101187.38
2019-01-14T20:26:26.498Z,101194.36
2019-01-14T20:28:56.383Z,101192.51
2019-01-14T20:31:26.001Z,101200.02
2019-01-14T20:33:55.347Z,101202.23
2019-01-14T20:36:25.502Z,101202.68
2019-01-14T20:38:55.012Z,101199.57
2019-01-14T20:41:24.649Z,101196.50
2019-01-14T20:43:54.606Z,101191.77
2019-01-14T20:46:24.220Z,101193.95
2019-01-14T20:48:53.564Z,101193.44
2019-01-14T20:51:23.256Z,101205.89
2019-01-14T20:53:53.108Z,101196.98
2019-01-14T20:56:22.756Z,101195.69
2019-01-14T20:58:52.146Z,101190.37
2019-01-14T21:01:21.513Z,101192.11
2019-01-14T21:03:51.170Z,101182.78
2019-01-14T21:06:22.411Z,101183.27
2019-01-14T21:08:59.635Z,101182.45
2019-01-14T21:11:29.500Z,101180.84
2019-01-14T21:13:59.070Z,101179.87
2019-01-14T21:16:28.975Z,101179.91
2019-01-14T21:18:58.592Z,101186.64
2019-01-14T21:24:37.331Z,101188.82
2019-01-14T21:27:06.686Z,101191.30
2019-01-14T21:29:36.328Z,101196.69
2019-01-14T21:32:05.655Z,101200.16
2019-01-14T21:34:35.234Z,101198.31
2019-01-14T21:37:04.572Z,101203.56
2019-01-14T21:39:34.103Z,101197.83
2019-01-14T21:42:03.427Z,101197.02
2019-01-14T21:44:32.787Z,101200.16
2019-01-14T21:47:02.469Z,101199.28
2019-01-14T21:49:32.148Z,101199.83
2019-01-14T21:52:22.633Z,101203.02
2019-01-14T21:55:13.111Z,101211.81
2019-01-14T21:57:42.473Z,101215.25
2019-01-14T22:03:22.870Z,101225.59
2019-01-14T22:05:52.333Z,101232.88
2019-01-14T22:08:21.905Z,101241.27
2019-01-14T22:10:51.263Z,101246.85
2019-01-14T22:13:20.665Z,101245.93
2019-01-14T22:15:50.296Z,101242.78
2019-01-14T22:18:19.624Z,101240.08
2019-01-14T22:21:29.301Z,101234.27
2019-01-14T22:23:58.632Z,101244.52
2019-01-14T22:29:08.651Z,101247.05
2019-01-14T22:31:38.290Z,101233.92
2019-01-14T22:34:07.622Z,101246.90
2019-01-14T22:36:37.272Z,101251.00
2019-01-14T22:39:46.641Z,101246.68
2019-01-14T22:42:19.176Z,101244.02
2019-01-14T22:44:48.902Z,101248.08
2019-01-14T22:50:22.353Z,101237.80
2019-01-14T22:52:53.308Z,101225.02
2019-01-14T22:58:24.567Z,101241.13
2019-01-14T23:01:34.291Z,101232.66
2019-01-14T23:13:55.869Z,101243.83
2019-01-14T23:16:44.824Z,101245.12
2019-01-14T23:19:33.390Z,101256.69
2019-01-14T23:22:22.880Z,101256.69
2019-01-14T23:25:55.733Z,101257.10
2019-01-14T23:31:48.368Z,101266.45
2019-01-14T23:34:17.735Z,101266.05
2019-01-14T23:36:47.406Z,101269.70
2019-01-14T23:39:16.741Z,101260.97
2019-01-14T23:41:46.390Z,101263.70
2019-01-14T23:44:17.642Z,101268.89
2019-01-14T23:46:48.454Z,101265.45
2019-01-14T23:49:38.466Z,101262.82
2019-01-14T23:52:17.753Z,101256.13
2019-01-14T23:55:06.800Z,101256.42
2019-01-14T23:57:36.427Z,101256.42
